Time;durP1;ratioP1;P1;durP2;ratioP2;P2;SDS_P1;SDS_P2;PMS_P1;PMS_P2;Temp;Humidity;BMP_temperature;BMP_pressure;BME280_temperature;BME280_humidity;BME280_pressure;Samples;Min_cycle;Max_cycle;Signal;HPM_P1;HPM_P2
2021/05/30 00:01:18;;;;;;;0.30;0.30;;;19.30;66.60;;;;;;5113206;28;20140;-72
2021/05/30 00:03:44;;;;;;;0.32;0.32;;;19.30;66.70;;;;;;5113020;28;20063;-72
2021/05/30 00:06:11;;;;;;;0.20;0.20;;;19.30;66.80;;;;;;5112744;28;20047;-72
2021/05/30 00:08:37;;;;;;;0.20;0.20;;;19.30;66.80;;;;;;5133416;27;20180;-72
2021/05/30 00:11:04;;;;;;;0.15;0.15;;;19.30;67.00;;;;;;5133339;27;20051;-72
2021/05/30 00:13:30;;;;;;;0.13;0.13;;;19.30;67.00;;;;;;5132342;27;20164;-72
2021/05/30 00:15:56;;;;;;;0.60;0.30;;;19.30;67.10;;;;;;5132962;27;20603;-72
2021/05/30 00:18:23;;;;;;;0.20;0.20;;;19.30;67.10;;;;;;5133214;27;20051;-72
2021/05/30 00:20:49;;;;;;;0.20;0.20;;;19.20;67.10;;;;;;5133358;27;20084;-72
2021/05/30 00:23:15;;;;;;;0.30;0.30;;;19.20;67.20;;;;;;5133243;27;20138;-72
2021/05/30 00:25:42;;;;;;;0.28;0.28;;;19.20;67.20;;;;;;5131647;27;20058;-72
2021/05/30 00:28:08;;;;;;;0.10;0.10;;;19.20;67.20;;;;;;5129520;28;20039;-73
2021/05/30 00:30:35;;;;;;;0.28;0.28;;;19.20;67.10;;;;;;5133030;28;20516;-73
2021/05/30 00:33:01;;;;;;;0.20;0.20;;;19.20;67.20;;;;;;5133082;28;20562;-72
2021/05/30 00:35:27;;;;;;;0.45;0.40;;;19.20;67.10;;;;;;5132842;28;20167;-72
2021/05/30 00:37:54;;;;;;;0.22;0.22;;;19.20;67.10;;;;;;5133144;28;20072;-72
2021/05/30 00:40:21;;;;;;;0.17;0.17;;;19.20;67.10;;;;;;5132905;28;20047;-72
2021/05/30 00:42:48;;;;;;;0.20;0.20;;;19.20;67.10;;;;;;5132994;28;20439;-72
2021/05/30 00:45:15;;;;;;;0.15;0.15;;;19.10;67.10;;;;;;5132917;28;20130;-72
2021/05/30 00:47:41;;;;;;;0.20;0.20;;;19.10;67.20;;;;;;5118278;28;20066;-72
2021/05/30 00:50:09;;;;;;;0.20;0.20;;;19.10;67.20;;;;;;5132886;28;20122;-72
2021/05/30 00:52:35;;;;;;;0.20;0.20;;;19.10;67.30;;;;;;5132955;28;20040;-72
2021/05/30 00:55:03;;;;;;;0.20;0.20;;;19.10;67.40;;;;;;5132285;28;20051;-72
2021/05/30 00:57:30;;;;;;;0.13;0.13;;;19.10;67.70;;;;;;5121065;28;20130;-72
2021/05/30 00:59:56;;;;;;;0.20;0.20;;;19.10;67.50;;;;;;5132828;28;20156;-72
2021/05/30 01:02:22;;;;;;;0.20;0.20;;;19.10;67.50;;;;;;5132593;28;20073;-72
2021/05/30 01:04:49;;;;;;;0.20;0.20;;;19.00;67.40;;;;;;5132902;28;20043;-72
2021/05/30 01:07:18;;;;;;;0.20;0.20;;;19.00;67.50;;;;;;5132737;28;20053;-72
2021/05/30 01:09:46;;;;;;;0.65;0.30;;;19.00;67.50;;;;;;5132080;28;20434;-72
2021/05/30 01:12:15;;;;;;;0.20;0.20;;;19.00;67.60;;;;;;5132618;28;20418;-72
2021/05/30 01:14:42;;;;;;;0.35;0.20;;;19.00;67.70;;;;;;5131400;28;20414;-72
2021/05/30 01:17:09;;;;;;;0.20;0.20;;;18.90;67.60;;;;;;5132601;28;20047;-72
2021/05/30 01:19:38;;;;;;;0.30;0.25;;;18.90;67.50;;;;;;5132671;28;20490;-72
2021/05/30 01:22:08;;;;;;;0.20;0.20;;;18.90;67.60;;;;;;5132274;28;20043;-72
2021/05/30 01:24:37;;;;;;;0.20;0.20;;;18.90;67.60;;;;;;5132794;27;20047;-72
2021/05/30 01:27:04;;;;;;;0.13;0.13;;;18.90;67.50;;;;;;5135351;27;20513;-72
2021/05/30 01:29:31;;;;;;;0.10;0.10;;;18.90;67.50;;;;;;5130404;27;20043;-72
2021/05/30 01:31:57;;;;;;;0.10;0.10;;;18.90;67.40;;;;;;5136582;27;20123;-72
2021/05/30 01:34:23;;;;;;;0.10;0.10;;;18.90;67.50;;;;;;5136552;27;20118;-72
2021/05/30 01:36:50;;;;;;;0.20;0.20;;;18.90;67.50;;;;;;5136084;27;20046;-72
2021/05/30 01:39:16;;;;;;;0.20;0.20;;;18.90;67.50;;;;;;5136251;27;20051;-72
2021/05/30 01:41:43;;;;;;;0.30;0.30;;;18.90;67.50;;;;;;5135749;27;20051;-72
2021/05/30 01:44:09;;;;;;;0.20;0.20;;;18.90;67.50;;;;;;5136080;27;20058;-72
2021/05/30 01:46:36;;;;;;;0.28;0.28;;;18.90;67.40;;;;;;5130073;27;20063;-72
2021/05/30 01:49:02;;;;;;;0.20;0.20;;;18.90;67.50;;;;;;5132651;27;20058;-72
2021/05/30 01:51:28;;;;;;;0.13;0.13;;;18.90;67.40;;;;;;5136275;27;20125;-72
2021/05/30 01:54:04;;;;;;;0.20;0.20;;;18.90;67.40;;;;;;5135376;27;20097;-72
2021/05/30 01:59:17;;;;;;;0.10;0.10;;;18.90;67.50;;;;;;5133007;27;20099;-72
2021/05/30 02:01:44;;;;;;;0.20;0.20;;;18.90;67.50;;;;;;5135883;27;20079;-72
2021/05/30 02:04:12;;;;;;;0.30;0.30;;;18.80;67.40;;;;;;5117074;27;20061;-72
2021/05/30 02:06:42;;;;;;;0.20;0.20;;;18.90;67.50;;;;;;5135336;27;20142;-72
2021/05/30 02:09:09;;;;;;;0.10;0.10;;;18.90;67.50;;;;;;5135417;27;20047;-72
2021/05/30 02:11:39;;;;;;;0.20;0.20;;;18.80;67.50;;;;;;5134997;27;20572;-72
2021/05/30 02:14:07;;;;;;;0.20;0.20;;;18.90;67.50;;;;;;5135762;27;20082;-72
2021/05/30 02:16:34;;;;;;;0.20;0.20;;;18.80;67.50;;;;;;5135626;27;20091;-72
2021/05/30 02:19:01;;;;;;;0.20;0.20;;;18.80;67.50;;;;;;5134660;27;20047;-72
2021/05/30 02:21:48;;;;;;;0.20;0.20;;;18.90;67.50;;;;;;5134854;27;20054;-72
2021/05/30 02:24:16;;;;;;;0.20;0.20;;;18.80;67.50;;;;;;5135303;27;20047;-72
2021/05/30 02:26:43;;;;;;;0.10;0.10;;;18.80;67.50;;;;;;5134853;27;20039;-72
2021/05/30 02:29:15;;;;;;;0.20;0.20;;;18.80;67.60;;;;;;5125607;27;20047;-72
2021/05/30 02:31:42;;;;;;;0.17;0.17;;;18.80;67.70;;;;;;5135110;27;20047;-71
2021/05/30 02:34:08;;;;;;;0.20;0.20;;;18.80;67.70;;;;;;5130277;27;20133;-71
2021/05/30 02:36:34;;;;;;;0.10;0.10;;;18.80;67.70;;;;;;5116295;27;20036;-71
2021/05/30 02:39:00;;;;;;;0.22;0.22;;;18.80;67.70;;;;;;5129037;27;20129;-71
2021/05/30 02:41:27;;;;;;;0.20;0.20;;;18.80;67.70;;;;;;5130952;27;20055;-71
2021/05/30 02:43:53;;;;;;;0.20;0.20;;;18.80;67.80;;;;;;5135248;27;20070;-71
2021/05/30 02:46:19;;;;;;;0.22;0.22;;;18.80;68.70;;;;;;5131059;27;20055;-71
2021/05/30 02:48:46;;;;;;;0.25;0.25;;;18.70;67.70;;;;;;5113809;28;20126;-71
2021/05/30 02:51:12;;;;;;;0.20;0.20;;;18.70;67.70;;;;;;5133481;27;20054;-71
2021/05/30 02:53:38;;;;;;;0.20;0.20;;;18.70;67.70;;;;;;5135086;27;20122;-71
2021/05/30 02:56:05;;;;;;;0.20;0.20;;;18.70;67.70;;;;;;5134594;27;20139;-71
2021/05/30 02:58:31;;;;;;;0.17;0.17;;;18.70;67.70;;;;;;5133653;27;20051;-71
2021/05/30 03:00:58;;;;;;;0.20;0.20;;;18.70;67.70;;;;;;5134513;27;20130;-71
2021/05/30 03:03:31;;;;;;;0.30;0.30;;;18.70;67.70;;;;;;5133865;27;20046;-71
2021/05/30 03:06:05;;;;;;;0.10;0.10;;;18.70;67.70;;;;;;5120079;27;20043;-71
2021/05/30 03:08:36;;;;;;;0.20;0.20;;;18.70;67.70;;;;;;5093779;28;20083;-71
2021/05/30 03:11:09;;;;;;;0.15;0.15;;;18.70;67.60;;;;;;5093544;28;20080;-71
2021/05/30 03:13:44;;;;;;;0.20;0.20;;;18.70;67.60;;;;;;5093483;28;20125;-71
2021/05/30 03:16:16;;;;;;;0.20;0.20;;;18.60;67.60;;;;;;5093703;28;20040;-71
2021/05/30 03:18:49;;;;;;;0.20;0.20;;;18.70;67.60;;;;;;5093185;28;20117;-71
2021/05/30 03:21:22;;;;;;;0.30;0.30;;;18.60;67.50;;;;;;5093594;28;20093;-71
2021/05/30 03:23:55;;;;;;;0.20;0.20;;;18.60;67.50;;;;;;5093628;28;20044;-71
2021/05/30 03:26:29;;;;;;;0.40;0.30;;;18.60;67.50;;;;;;5093713;28;20372;-71
2021/05/30 03:29:02;;;;;;;0.20;0.20;;;18.60;67.40;;;;;;5104672;28;20151;-71
2021/05/30 03:31:32;;;;;;;0.15;0.15;;;18.60;67.20;;;;;;5092954;28;20052;-71
2021/05/30 03:34:02;;;;;;;0.28;0.20;;;18.60;67.20;;;;;;5093112;28;20055;-71
2021/05/30 03:36:31;;;;;;;0.10;0.10;;;18.60;67.20;;;;;;5092917;28;20048;-71
2021/05/30 03:39:01;;;;;;;0.13;0.10;;;18.60;67.10;;;;;;5092242;28;20048;-72
2021/05/30 03:41:40;;;;;;;0.28;0.28;;;18.60;67.10;;;;;;5093068;28;20048;-71
2021/05/30 03:44:09;;;;;;;0.25;0.25;;;18.60;67.00;;;;;;5074881;28;20048;-71
2021/05/30 03:46:37;;;;;;;0.25;0.25;;;18.60;67.00;;;;;;5093080;28;20044;-71
2021/05/30 03:49:09;;;;;;;0.15;0.15;;;18.60;67.00;;;;;;5095180;28;20047;-71
2021/05/30 03:51:35;;;;;;;0.10;0.10;;;18.60;67.40;;;;;;5096897;28;20062;-71
2021/05/30 03:54:02;;;;;;;0.30;0.30;;;18.60;66.80;;;;;;5096235;28;20183;-71
2021/05/30 03:56:28;;;;;;;0.10;0.10;;;18.60;66.70;;;;;;5093169;28;20125;-71
2021/05/30 03:58:56;;;;;;;0.20;0.20;;;18.60;66.70;;;;;;5092188;28;20058;-71
2021/05/30 04:01:23;;;;;;;0.10;0.10;;;18.60;66.60;;;;;;5092816;28;20131;-71
2021/05/30 04:03:49;;;;;;;0.20;0.15;;;18.60;66.60;;;;;;5092646;28;20059;-71
2021/05/30 04:06:17;;;;;;;0.00;0.00;;;18.60;66.40;;;;;;5092961;28;20201;-71
2021/05/30 04:08:46;;;;;;;0.20;0.10;;;18.60;66.30;;;;;;5112878;28;20047;-70
2021/05/30 04:11:13;;;;;;;0.30;0.30;;;18.60;66.00;;;;;;5133296;27;20122;-71
2021/05/30 04:13:39;;;;;;;0.20;0.20;;;18.60;65.70;;;;;;5133566;27;20122;-71
2021/05/30 04:16:06;;;;;;;0.15;0.15;;;18.60;65.50;;;;;;5133050;27;20157;-71
2021/05/30 04:18:32;;;;;;;0.20;0.20;;;18.60;65.40;;;;;;5133683;27;20082;-71
2021/05/30 04:20:58;;;;;;;0.00;0.00;;;18.60;65.20;;;;;;5132712;27;20051;-71
2021/05/30 04:23:25;;;;;;;0.30;0.20;;;18.60;65.00;;;;;;5133204;27;20140;-71
2021/05/30 04:25:51;;;;;;;0.10;0.10;;;18.60;64.90;;;;;;5133124;27;20118;-71
2021/05/30 04:28:20;;;;;;;0.10;0.10;;;18.50;64.60;;;;;;5132896;27;20122;-71
2021/05/30 04:30:47;;;;;;;0.17;0.10;;;18.50;64.50;;;;;;5127799;28;20055;-71
2021/05/30 04:33:13;;;;;;;0.10;0.10;;;18.50;64.30;;;;;;5133386;28;20141;-71
2021/05/30 04:35:39;;;;;;;0.10;0.10;;;18.50;64.20;;;;;;5132825;28;20411;-71
2021/05/30 04:38:06;;;;;;;0.20;0.20;;;18.50;64.10;;;;;;5132955;28;20129;-71
2021/05/30 04:40:32;;;;;;;0.28;0.20;;;18.50;63.90;;;;;;5132871;28;20039;-70
2021/05/30 04:42:59;;;;;;;0.10;0.10;;;18.50;63.60;;;;;;5114212;28;20441;-71
2021/05/30 04:45:25;;;;;;;0.20;0.20;;;18.50;63.50;;;;;;5128002;28;20047;-72
2021/05/30 04:47:51;;;;;;;0.10;0.10;;;18.50;63.20;;;;;;5124288;28;20043;-71
2021/05/30 04:50:18;;;;;;;0.15;0.15;;;18.50;63.00;;;;;;5132673;28;20130;-71
2021/05/30 04:52:44;;;;;;;0.10;0.10;;;18.50;63.00;;;;;;5132907;28;20123;-71
2021/05/30 04:55:11;;;;;;;0.10;0.10;;;18.60;63.00;;;;;;5132681;28;20474;-70
2021/05/30 04:57:42;;;;;;;0.10;0.10;;;18.60;62.80;;;;;;5132825;28;20118;-71
2021/05/30 05:00:10;;;;;;;0.10;0.10;;;18.60;62.70;;;;;;5134151;27;20518;-71
2021/05/30 05:02:37;;;;;;;0.10;0.10;;;18.60;62.50;;;;;;5137001;27;20085;-71
2021/05/30 05:05:04;;;;;;;0.00;0.00;;;18.60;62.40;;;;;;5136230;27;20043;-71
2021/05/30 05:07:30;;;;;;;0.17;0.17;;;18.60;62.30;;;;;;5129134;27;20188;-71
2021/05/30 05:09:57;;;;;;;0.20;0.10;;;18.50;62.20;;;;;;5102065;27;20063;-71
2021/05/30 05:12:23;;;;;;;0.00;0.00;;;18.50;62.00;;;;;;5122659;27;20130;-71
2021/05/30 05:14:49;;;;;;;0.00;0.00;;;18.50;61.90;;;;;;5122938;27;20516;-71
2021/05/30 05:17:16;;;;;;;0.10;0.10;;;18.50;61.90;;;;;;5127717;27;20093;-71
2021/05/30 05:19:42;;;;;;;0.00;0.00;;;18.60;61.90;;;;;;5099196;28;20055;-70
2021/05/30 05:22:10;;;;;;;0.10;0.10;;;18.60;62.10;;;;;;5116115;28;20047;-71
2021/05/30 05:24:36;;;;;;;0.00;0.00;;;18.50;61.70;;;;;;5125188;27;20059;-70
2021/05/30 05:27:03;;;;;;;0.08;0.08;;;18.50;61.60;;;;;;5115474;28;20437;-70
2021/05/30 05:29:29;;;;;;;0.10;0.10;;;18.50;61.50;;;;;;5115506;28;20196;-70
2021/05/30 05:31:55;;;;;;;0.08;0.08;;;18.50;61.50;;;;;;5115883;28;20068;-70
2021/05/30 05:34:21;;;;;;;0.00;0.00;;;18.50;61.40;;;;;;5115692;28;20052;-71
2021/05/30 05:36:48;;;;;;;0.00;0.00;;;18.50;61.40;;;;;;5115750;28;20478;-71
2021/05/30 05:39:14;;;;;;;0.10;0.10;;;18.50;62.50;;;;;;5115711;28;20070;-71
2021/05/30 05:41:40;;;;;;;0.10;0.10;;;18.50;61.40;;;;;;5115968;28;20096;-71
2021/05/30 05:44:07;;;;;;;0.00;0.00;;;18.50;61.40;;;;;;5114883;28;20122;-71
2021/05/30 05:46:33;;;;;;;0.10;0.10;;;18.50;61.40;;;;;;5115682;28;20075;-71
2021/05/30 05:48:59;;;;;;;0.10;0.10;;;18.50;61.30;;;;;;5115186;28;20503;-71
2021/05/30 05:51:26;;;;;;;0.05;0.05;;;18.50;61.40;;;;;;5115323;28;20079;-71
2021/05/30 05:53:52;;;;;;;0.10;0.10;;;18.50;61.50;;;;;;5113660;28;20088;-71
2021/05/30 05:56:19;;;;;;;0.05;0.05;;;18.60;61.50;;;;;;5110040;28;20061;-71
2021/05/30 05:58:45;;;;;;;0.10;0.10;;;18.60;61.50;;;;;;5114532;28;20075;-71
2021/05/30 06:01:13;;;;;;;0.10;0.10;;;18.60;61.40;;;;;;5114809;28;20047;-71
2021/05/30 06:03:39;;;;;;;0.10;0.10;;;18.60;61.40;;;;;;5115170;28;20082;-71
2021/05/30 06:06:05;;;;;;;0.10;0.10;;;18.60;61.20;;;;;;5116372;27;20503;-71
2021/05/30 06:08:32;;;;;;;0.10;0.10;;;18.70;61.30;;;;;;5130103;27;20160;-71
2021/05/30 06:10:58;;;;;;;0.00;0.00;;;18.70;61.30;;;;;;5118067;27;20440;-71
2021/05/30 06:13:25;;;;;;;0.08;0.08;;;18.70;61.20;;;;;;5114862;28;20482;-71
2021/05/30 06:15:51;;;;;;;0.10;0.10;;;18.70;61.20;;;;;;5126419;27;20482;-71
2021/05/30 06:18:19;;;;;;;0.00;0.00;;;18.70;61.20;;;;;;5096635;28;20081;-71
2021/05/30 06:20:46;;;;;;;0.08;0.08;;;18.70;61.10;;;;;;5115359;28;20122;-71
2021/05/30 06:23:13;;;;;;;0.00;0.00;;;18.80;61.00;;;;;;5121974;27;20087;-71
2021/05/30 06:25:42;;;;;;;0.10;0.10;;;18.80;60.60;;;;;;5115049;28;20043;-71
2021/05/30 06:28:09;;;;;;;0.00;0.00;;;18.80;60.30;;;;;;5114423;28;20040;-71
2021/05/30 06:30:38;;;;;;;0.10;0.10;;;18.90;60.30;;;;;;5117973;27;20039;-71
2021/05/30 06:33:06;;;;;;;0.10;0.00;;;18.80;60.00;;;;;;5118894;27;20051;-71
2021/05/30 06:35:32;;;;;;;0.10;0.00;;;18.90;60.00;;;;;;5114251;28;20525;-71
2021/05/30 06:38:00;;;;;;;0.10;0.10;;;18.90;59.80;;;;;;5113876;28;20074;-71
2021/05/30 06:40:28;;;;;;;0.10;0.05;;;18.90;59.50;;;;;;5113897;28;20135;-71
2021/05/30 06:42:54;;;;;;;0.10;0.10;;;18.90;59.30;;;;;;5113745;28;20165;-71
2021/05/30 06:45:20;;;;;;;0.32;0.10;;;18.90;59.20;;;;;;5113577;28;20089;-71
2021/05/30 06:47:47;;;;;;;0.10;0.10;;;19.00;59.20;;;;;;5113920;28;20127;-71
2021/05/30 06:50:14;;;;;;;0.00;0.00;;;19.00;59.00;;;;;;5113273;28;20418;-71
2021/05/30 06:52:40;;;;;;;0.10;0.10;;;19.00;58.90;;;;;;5113690;28;20044;-71
2021/05/30 06:55:07;;;;;;;0.00;0.00;;;19.10;58.90;;;;;;5122560;27;20147;-71
2021/05/30 06:57:34;;;;;;;0.10;0.10;;;19.20;58.80;;;;;;5115852;27;20046;-70
2021/05/30 07:00:00;;;;;;;0.10;0.10;;;19.20;58.00;;;;;;5113515;28;20044;-70
2021/05/30 07:02:27;;;;;;;0.10;0.10;;;19.20;57.80;;;;;;5113431;28;20048;-70
2021/05/30 07:04:53;;;;;;;0.00;0.00;;;19.20;57.90;;;;;;5113058;28;20054;-70
2021/05/30 07:07:19;;;;;;;0.08;0.08;;;19.20;57.80;;;;;;5112504;28;20100;-70
2021/05/30 07:09:46;;;;;;;0.00;0.00;;;19.30;57.70;;;;;;5117448;27;20047;-71
2021/05/30 07:12:12;;;;;;;0.35;0.10;;;19.30;57.50;;;;;;5114528;27;20429;-71
2021/05/30 07:14:38;;;;;;;0.00;0.00;;;19.30;56.80;;;;;;5116141;27;20092;-71
2021/05/30 07:17:05;;;;;;;0.47;0.13;;;19.20;56.50;;;;;;5114548;27;20074;-71
2021/05/30 07:19:31;;;;;;;0.10;0.05;;;19.20;56.70;;;;;;5116297;27;20176;-71
2021/05/30 07:21:57;;;;;;;0.10;0.10;;;19.20;56.50;;;;;;5115045;27;20130;-70
2021/05/30 07:24:24;;;;;;;0.10;0.10;;;19.20;55.80;;;;;;5112817;27;20098;-71
2021/05/30 07:26:50;;;;;;;0.10;0.10;;;19.20;55.90;;;;;;5127969;27;20078;-71
2021/05/30 07:29:17;;;;;;;0.85;0.10;;;19.20;56.20;;;;;;5115545;27;20131;-71
2021/05/30 07:31:44;;;;;;;0.45;0.08;;;19.20;56.20;;;;;;5125595;27;20042;-70
2021/05/30 07:34:11;;;;;;;0.10;0.10;;;19.20;55.60;;;;;;5123264;27;20444;-70
2021/05/30 07:36:38;;;;;;;0.00;0.00;;;19.20;56.00;;;;;;5116131;27;20086;-70
2021/05/30 07:39:05;;;;;;;0.00;0.00;;;19.30;56.30;;;;;;5093442;27;20116;-70
2021/05/30 07:41:33;;;;;;;0.10;0.10;;;19.30;56.50;;;;;;5113658;27;20055;-70
2021/05/30 07:44:00;;;;;;;0.20;0.00;;;19.40;56.10;;;;;;5113814;27;20087;-70
2021/05/30 07:46:26;;;;;;;0.00;0.00;;;19.50;56.10;;;;;;5097598;27;20166;-70
2021/05/30 07:48:53;;;;;;;0.08;0.00;;;19.50;56.30;;;;;;5096964;27;20056;-70
2021/05/30 07:51:19;;;;;;;0.08;0.08;;;19.60;56.00;;;;;;5110939;27;20075;-70
2021/05/30 07:53:46;;;;;;;0.00;0.00;;;19.60;56.00;;;;;;5124967;27;20052;-70
2021/05/30 07:56:12;;;;;;;0.10;0.10;;;19.70;56.10;;;;;;5121527;27;20126;-70
2021/05/30 07:58:39;;;;;;;0.10;0.10;;;19.70;55.30;;;;;;5132441;27;20122;-70
2021/05/30 08:01:05;;;;;;;0.05;0.05;;;19.70;54.90;;;;;;5131102;27;20058;-70
2021/05/30 08:03:31;;;;;;;0.03;0.03;;;19.70;54.30;;;;;;5131778;27;20051;-70
2021/05/30 08:05:58;;;;;;;0.08;0.08;;;19.70;54.80;;;;;;5131102;27;20085;-69
2021/05/30 08:08:24;;;;;;;0.15;0.05;;;19.80;54.60;;;;;;5131676;27;20134;-70
2021/05/30 08:10:51;;;;;;;0.10;0.10;;;19.80;54.30;;;;;;5130944;27;20127;-70
2021/05/30 08:13:17;;;;;;;0.10;0.10;;;19.90;54.60;;;;;;5132315;27;20474;-70
2021/05/30 08:15:43;;;;;;;0.00;0.00;;;20.00;54.90;;;;;;5132269;27;20047;-70
2021/05/30 08:18:10;;;;;;;0.00;0.00;;;20.10;55.10;;;;;;5131119;27;20122;-71
2021/05/30 08:20:37;;;;;;;0.00;0.00;;;20.20;55.20;;;;;;5127041;27;20122;-70
2021/05/30 08:23:04;;;;;;;0.10;0.10;;;20.30;54.60;;;;;;5128841;27;20515;-70
2021/05/30 08:25:30;;;;;;;0.08;0.08;;;20.30;54.40;;;;;;5131907;27;20043;-69
2021/05/30 08:27:57;;;;;;;0.00;0.00;;;20.40;54.60;;;;;;5131105;27;20047;-70
2021/05/30 08:30:23;;;;;;;0.00;0.00;;;20.40;54.60;;;;;;5117247;28;20047;-70
2021/05/30 08:32:50;;;;;;;0.05;0.05;;;20.50;54.40;;;;;;5114068;28;20051;-69
2021/05/30 08:35:17;;;;;;;0.95;0.10;;;20.60;54.30;;;;;;5112411;28;20067;-70
2021/05/30 08:37:44;;;;;;;0.00;0.00;;;20.60;54.10;;;;;;5112419;28;20193;-70
2021/05/30 08:40:15;;;;;;;0.00;0.00;;;20.70;54.00;;;;;;5114022;28;20043;-70
2021/05/30 08:42:43;;;;;;;0.10;0.10;;;20.70;54.60;;;;;;5095693;28;20052;-70
2021/05/30 08:45:10;;;;;;;0.00;0.00;;;20.80;53.40;;;;;;5112538;28;20564;-70
2021/05/30 08:47:36;;;;;;;0.00;0.00;;;20.80;52.70;;;;;;5113467;28;20107;-70
2021/05/30 08:50:04;;;;;;;0.00;0.00;;;20.80;52.90;;;;;;5107358;28;20581;-70
2021/05/30 08:52:33;;;;;;;0.10;0.10;;;20.80;52.70;;;;;;5120997;28;20402;-72
2021/05/30 08:55:00;;;;;;;0.05;0.05;;;20.80;51.20;;;;;;5123324;28;20035;-71
2021/05/30 08:57:27;;;;;;;0.00;0.00;;;20.70;52.20;;;;;;5101564;28;20161;-72
2021/05/30 08:59:55;;;;;;;0.20;0.20;;;20.70;51.40;;;;;;5120035;28;20059;-72
2021/05/30 09:02:22;;;;;;;0.00;0.00;;;20.70;52.20;;;;;;5108405;28;20582;-72
2021/05/30 09:04:54;;;;;;;0.10;0.10;;;20.80;52.80;;;;;;5112797;28;20039;-71
2021/05/30 09:07:56;;;;;;;0.10;0.10;;;20.90;53.00;;;;;;5111767;28;20130;-72
2021/05/30 09:10:24;;;;;;;0.13;0.10;;;21.00;51.70;;;;;;5034653;28;20447;-70
2021/05/30 09:13:04;;;;;;;0.00;0.00;;;21.00;52.30;;;;;;5029323;28;20048;-72
2021/05/30 09:15:51;;;;;;;0.38;0.00;;;21.20;52.70;;;;;;5025063;28;20455;-72
2021/05/30 09:18:22;;;;;;;0.20;0.10;;;21.30;52.20;;;;;;5025902;28;20124;-72
2021/05/30 09:20:55;;;;;;;0.10;0.03;;;21.40;51.00;;;;;;5026931;28;20187;-73
2021/05/30 09:23:42;;;;;;;0.00;0.00;;;21.40;51.30;;;;;;5026296;28;20048;-72
2021/05/30 09:26:10;;;;;;;0.30;0.10;;;21.50;51.60;;;;;;5026591;28;20231;-73
2021/05/30 09:28:38;;;;;;;0.00;0.00;;;21.70;52.00;;;;;;5029615;28;20501;-72
2021/05/30 09:31:05;;;;;;;0.20;0.10;;;21.80;52.30;;;;;;5027685;28;20061;-72
2021/05/30 09:33:32;;;;;;;0.20;0.00;;;22.00;52.50;;;;;;5030648;28;20045;-72
2021/05/30 09:36:02;;;;;;;0.05;0.00;;;22.20;52.80;;;;;;5027775;28;20107;-71
2021/05/30 09:38:35;;;;;;;0.10;0.10;;;22.40;52.70;;;;;;5026911;28;20156;-71
2021/05/30 09:41:04;;;;;;;0.00;0.00;;;22.60;52.00;;;;;;5024619;28;20054;-72
2021/05/30 09:43:35;;;;;;;0.10;0.10;;;22.70;50.40;;;;;;5031814;28;20053;-71
2021/05/30 09:46:15;;;;;;;0.03;0.00;;;22.80;50.50;;;;;;5089588;28;20468;-71
2021/05/30 09:48:48;;;;;;;0.00;0.00;;;22.90;50.00;;;;;;5098441;27;20569;-71
2021/05/30 09:51:33;;;;;;;0.10;0.10;;;23.00;50.20;;;;;;5103285;27;20085;-71
2021/05/30 09:54:05;;;;;;;0.03;0.03;;;23.20;50.70;;;;;;5107207;27;20175;-70
2021/05/30 09:56:36;;;;;;;0.40;0.10;;;23.30;49.50;;;;;;5104093;28;20075;-71
2021/05/30 09:59:05;;;;;;;0.10;0.10;;;23.40;48.90;;;;;;5110683;27;20039;-70
2021/05/30 10:02:00;;;;;;;0.00;0.00;;;23.50;48.90;;;;;;5111939;27;20044;-71
2021/05/30 10:04:35;;;;;;;0.00;0.00;;;23.70;48.50;;;;;;5112105;27;20052;-70
2021/05/30 10:07:04;;;;;;;0.10;0.10;;;23.70;46.80;;;;;;5109888;27;20134;-70
2021/05/30 10:09:32;;;;;;;0.00;0.00;;;23.70;46.90;;;;;;5109637;27;20047;-70
2021/05/30 10:11:59;;;;;;;0.10;0.10;;;23.70;46.00;;;;;;5109004;28;20072;-70
2021/05/30 10:14:26;;;;;;;0.70;0.10;;;23.50;45.10;;;;;;5111458;27;20126;-70
2021/05/30 10:16:53;;;;;;;0.10;0.10;;;23.30;46.00;;;;;;5108656;27;20054;-71
2021/05/30 10:19:31;;;;;;;0.10;0.10;;;23.20;47.20;;;;;;5118105;27;20130;-71
2021/05/30 10:21:59;;;;;;;0.10;0.10;;;23.20;46.50;;;;;;5122894;27;20099;-70
2021/05/30 10:24:27;;;;;;;0.00;0.00;;;23.10;44.70;;;;;;5118394;27;20631;-71
2021/05/30 10:27:15;;;;;;;0.10;0.10;;;22.90;44.20;;;;;;5123580;27;20051;-69
2021/05/30 10:30:01;;;;;;;0.40;0.40;;;22.70;43.60;;;;;;5113817;27;20533;-69
2021/05/30 10:32:28;;;;;;;0.10;0.10;;;22.70;44.40;;;;;;5111554;27;20093;-69
2021/05/30 10:35:20;;;;;;;0.10;0.10;;;22.70;43.90;;;;;;5120072;27;20047;-69
2021/05/30 10:37:49;;;;;;;0.20;0.10;;;22.70;43.20;;;;;;5105530;27;20051;-69
2021/05/30 10:40:21;;;;;;;0.05;0.05;;;22.70;44.20;;;;;;5109013;28;20530;-69
2021/05/30 10:45:45;;;;;;;0.10;0.10;;;22.70;44.10;;;;;;5108178;28;20048;-69
2021/05/30 10:48:12;;;;;;;0.43;0.10;;;22.70;44.50;;;;;;5107644;28;20151;-69
2021/05/30 10:50:48;;;;;;;0.20;0.10;;;22.70;45.10;;;;;;5117461;27;20055;-69
2021/05/30 10:53:39;;;;;;;0.10;0.10;;;22.80;44.60;;;;;;5110565;27;20045;-70
2021/05/30 10:56:19;;;;;;;0.63;0.63;;;22.90;43.90;;;;;;5120503;27;20099;-70
2021/05/30 10:59:11;;;;;;;0.20;0.20;;;22.90;42.90;;;;;;5101433;28;20225;-69
2021/05/30 11:01:40;;;;;;;0.30;0.30;;;23.00;42.50;;;;;;5106694;27;20051;-72
2021/05/30 11:04:28;;;;;;;0.38;0.30;;;23.00;43.50;;;;;;5119589;27;20051;-69
2021/05/30 11:07:05;;;;;;;0.30;0.30;;;23.00;43.40;;;;;;5123439;27;20518;-69
2021/05/30 11:09:50;;;;;;;0.00;0.00;;;23.10;41.20;;;;;;5122178;27;20464;-73
2021/05/30 11:12:23;;;;;;;0.03;0.03;;;23.00;41.30;;;;;;5121157;27;20048;-68
2021/05/30 11:15:12;;;;;;;0.20;0.03;;;23.00;41.90;;;;;;5115236;27;20100;-68
2021/05/30 11:17:51;;;;;;;0.30;0.17;;;23.00;42.00;;;;;;5109301;27;20051;-68
2021/05/30 11:20:22;;;;;;;0.20;0.20;;;23.00;41.80;;;;;;5124563;27;20133;-68
2021/05/30 11:22:58;;;;;;;0.10;0.10;;;23.00;42.20;;;;;;5106292;27;20094;-69
2021/05/30 11:25:37;;;;;;;0.10;0.00;;;23.00;41.70;;;;;;5105485;27;20179;-69
2021/05/30 11:28:05;;;;;;;0.10;0.10;;;23.00;41.10;;;;;;5116453;27;20056;-69
2021/05/30 11:30:56;;;;;;;0.25;0.20;;;23.00;41.70;;;;;;5123548;27;20095;-69
2021/05/30 11:33:22;;;;;;;0.10;0.10;;;23.00;41.80;;;;;;5120219;27;20087;-69
2021/05/30 11:35:49;;;;;;;0.20;0.10;;;23.00;42.30;;;;;;5120548;27;20043;-71
2021/05/30 11:38:17;;;;;;;0.35;0.10;;;23.00;42.60;;;;;;5107646;27;20050;-68
2021/05/30 11:40:44;;;;;;;0.00;0.00;;;22.90;40.20;;;;;;5107290;28;20527;-70
2021/05/30 11:43:16;;;;;;;0.20;0.05;;;22.80;39.90;;;;;;5107918;28;20130;-68
2021/05/30 11:45:45;;;;;;;0.08;0.08;;;22.60;40.70;;;;;;5107313;28;20181;-72
2021/05/30 11:48:17;;;;;;;0.00;0.00;;;22.60;41.40;;;;;;5108332;28;20426;-71
2021/05/30 11:50:55;;;;;;;0.00;0.00;;;22.60;41.70;;;;;;5110819;27;20395;-69
2021/05/30 11:53:34;;;;;;;0.03;0.03;;;22.60;40.80;;;;;;5100274;28;20503;-71
2021/05/30 11:56:02;;;;;;;0.10;0.10;;;22.60;41.10;;;;;;5109332;28;20046;-68
2021/05/30 11:58:29;;;;;;;0.10;0.10;;;22.70;41.30;;;;;;5090079;28;20079;-68
2021/05/30 12:00:56;;;;;;;0.00;0.00;;;22.70;41.60;;;;;;5108070;28;20051;-70
2021/05/30 12:03:23;;;;;;;0.03;0.00;;;22.80;40.60;;;;;;5108423;28;20087;-68
2021/05/30 12:06:00;;;;;;;0.10;0.00;;;22.80;40.90;;;;;;5108341;28;20519;-68
2021/05/30 12:08:27;;;;;;;0.10;0.10;;;22.90;40.60;;;;;;5107997;28;20522;-68
2021/05/30 12:11:02;;;;;;;0.00;0.00;;;22.80;38.90;;;;;;5108083;28;20104;-68
2021/05/30 12:13:37;;;;;;;0.10;0.10;;;22.80;39.70;;;;;;5108671;28;20083;-68
2021/05/30 12:16:18;;;;;;;0.10;0.10;;;22.80;40.30;;;;;;5108340;28;20431;-68
2021/05/30 12:18:54;;;;;;;0.00;0.00;;;22.90;39.80;;;;;;5108495;28;20058;-68
2021/05/30 12:21:42;;;;;;;0.03;0.00;;;22.90;40.50;;;;;;5108759;28;20051;-68
2021/05/30 12:24:11;;;;;;;0.08;0.08;;;22.80;38.90;;;;;;5108509;28;20074;-68
2021/05/30 12:26:45;;;;;;;0.00;0.00;;;22.70;39.40;;;;;;5103491;28;20048;-69
2021/05/30 12:29:15;;;;;;;0.00;0.00;;;22.80;40.40;;;;;;5111107;27;20059;-68
2021/05/30 12:31:42;;;;;;;0.00;0.00;;;22.80;40.40;;;;;;5124197;28;20069;-68
2021/05/30 12:34:09;;;;;;;0.00;0.00;;;22.90;40.80;;;;;;5115015;28;20192;-68
2021/05/30 12:36:50;;;;;;;0.70;0.00;;;23.00;40.00;;;;;;5120250;28;20913;-68
2021/05/30 12:39:23;;;;;;;0.28;0.10;;;23.00;40.60;;;;;;5095110;28;20130;-69
2021/05/30 12:42:11;;;;;;;0.10;0.10;;;23.10;40.30;;;;;;5105725;28;20597;-68
2021/05/30 12:44:51;;;;;;;0.10;0.10;;;23.20;39.90;;;;;;5112510;28;20067;-68
2021/05/30 12:47:24;;;;;;;0.00;0.00;;;23.20;39.90;;;;;;5115770;28;20058;-68
2021/05/30 12:49:55;;;;;;;0.00;0.00;;;23.20;40.30;;;;;;5113603;28;20092;-68
2021/05/30 12:52:24;;;;;;;0.00;0.00;;;23.30;40.70;;;;;;5110724;28;20067;-69
2021/05/30 12:55:06;;;;;;;0.00;0.00;;;23.40;40.40;;;;;;5114073;28;20259;-67
2021/05/30 12:57:46;;;;;;;0.00;0.00;;;23.40;40.40;;;;;;5115623;28;20550;-69
2021/05/30 13:00:35;;;;;;;0.00;0.00;;;23.50;40.20;;;;;;5104717;28;20130;-69
2021/05/30 13:03:11;;;;;;;0.00;0.00;;;23.50;39.30;;;;;;5108297;28;20040;-73
2021/05/30 13:05:39;;;;;;;0.00;0.00;;;23.50;38.60;;;;;;5110737;28;20399;-71